Time;durP1;ratioP1;P1;durP2;ratioP2;P2;SDS_P1;SDS_P2;PMS_P1;PMS_P2;Temp;Humidity;BMP_temperature;BMP_pressure;BME280_temperature;BME280_humidity;BME280_pressure;Samples;Min_cycle;Max_cycle;Signal;HPM_P1;HPM_P2
2022/11/03 00:01:04;;;;;;;0.40;0.40;;;;;;;17.56;49.67;99765.97;5051573;28;20661;-66
2022/11/03 00:03:31;;;;;;;0.40;0.40;;;;;;;17.50;50.28;99763.66;5049382;28;20630;-66
2022/11/03 00:06:07;;;;;;;0.43;0.43;;;;;;;17.37;49.96;99744.50;5052374;28;20209;-66
2022/11/03 00:08:36;;;;;;;0.40;0.40;;;;;;;17.47;49.92;99760.41;5048416;28;20197;-66
2022/11/03 00:11:09;;;;;;;0.50;0.50;;;;;;;17.49;49.89;99762.00;5051149;28;20250;-67
2022/11/03 00:13:38;;;;;;;0.37;0.37;;;;;;;17.50;49.93;99768.84;5051189;28;20626;-66
2022/11/03 00:16:06;;;;;;;1.20;1.20;;;;;;;17.44;49.47;99751.03;5051458;28;20220;-65
2022/11/03 00:18:34;;;;;;;0.60;0.60;;;;;;;17.62;49.30;99763.06;5052155;28;20197;-66
2022/11/03 00:21:02;;;;;;;0.70;0.70;;;;;;;17.74;48.71;99767.56;5048981;28;20199;-66
2022/11/03 00:23:30;;;;;;;0.50;0.50;;;;;;;17.77;48.13;99757.03;5051581;28;20208;-66
2022/11/03 00:26:05;;;;;;;0.50;0.50;;;;;;;17.79;48.34;99755.22;5051816;28;20204;-67
2022/11/03 00:28:33;;;;;;;0.60;0.60;;;;;;;17.98;48.11;99769.78;5051236;28;20261;-67
2022/11/03 00:31:05;;;;;;;1.00;1.00;;;;;;;18.04;47.67;99774.63;5051343;28;20204;-67
2022/11/03 00:33:32;;;;;;;0.50;0.50;;;;;;;18.10;47.57;99769.09;5051037;28;20215;-67
2022/11/03 00:36:00;;;;;;;0.63;0.63;;;;;;;18.13;47.19;99774.09;5051315;28;20252;-67
2022/11/03 00:38:27;;;;;;;0.50;0.50;;;;;;;18.12;47.50;99773.31;5051205;28;20197;-66
2022/11/03 00:40:54;;;;;;;0.40;0.40;;;;;;;18.14;46.95;99775.78;5051255;28;20295;-70
2022/11/03 00:43:21;;;;;;;0.40;0.40;;;;;;;18.14;47.05;99776.63;5051084;28;20247;-69
2022/11/03 00:45:49;;;;;;;0.47;0.47;;;;;;;18.12;47.22;99768.13;5050415;28;20559;-70
2022/11/03 00:48:30;;;;;;;0.40;0.40;;;;;;;17.91;47.49;99745.06;5049558;28;20589;-70
2022/11/03 00:51:04;;;;;;;0.50;0.50;;;;;;;17.96;47.41;99762.09;5050385;28;20250;-70
2022/11/03 00:53:33;;;;;;;0.43;0.43;;;;;;;17.92;47.92;99762.31;5050555;28;20677;-70
2022/11/03 00:56:01;;;;;;;0.60;0.60;;;;;;;17.90;47.71;99761.59;5048525;28;20212;-70
2022/11/03 00:58:28;;;;;;;0.60;0.60;;;;;;;17.83;48.30;99771.44;5050548;28;20266;-70
2022/11/03 01:01:06;;;;;;;0.67;0.67;;;;;;;17.76;48.36;99765.75;5050642;28;20235;-70
2022/11/03 01:03:36;;;;;;;0.50;0.50;;;;;;;17.70;48.61;99766.09;5050790;28;20631;-70
2022/11/03 01:08:51;;;;;;;0.60;0.60;;;;;;;17.60;49.07;99759.72;5050158;28;20200;-70
2022/11/03 01:14:05;;;;;;;0.60;0.60;;;;;;;17.65;48.53;99755.09;5050154;28;20231;-70
2022/11/03 01:16:33;;;;;;;0.47;0.47;;;;;;;17.69;48.48;99763.56;5050843;28;20251;-70
2022/11/03 01:19:01;;;;;;;0.50;0.50;;;;;;;17.75;48.16;99764.06;5050859;28;20193;-70
2022/11/03 01:21:28;;;;;;;0.73;0.73;;;;;;;17.79;48.12;99757.81;5050343;28;20197;-70
2022/11/03 01:23:55;;;;;;;0.63;0.63;;;;;;;17.81;48.20;99758.56;5050458;28;20700;-70
2022/11/03 01:26:22;;;;;;;0.40;0.40;;;;;;;17.81;48.10;99761.16;5050087;28;20209;-70
2022/11/03 01:28:49;;;;;;;0.50;0.50;;;;;;;17.81;48.08;99763.75;5050242;28;20627;-70
2022/11/03 01:31:18;;;;;;;0.43;0.43;;;;;;;17.80;48.39;99764.66;5049780;28;20196;-70
2022/11/03 01:33:46;;;;;;;0.60;0.60;;;;;;;17.78;48.20;99753.53;5047559;28;20200;-70
2022/11/03 01:36:15;;;;;;;0.40;0.40;;;;;;;17.74;48.21;99753.75;5050217;28;20228;-70
2022/11/03 01:38:42;;;;;;;0.53;0.53;;;;;;;17.69;48.56;99754.03;5050464;28;20204;-70
2022/11/03 01:41:12;;;;;;;0.57;0.57;;;;;;;17.69;48.24;99759.22;5050227;28;20192;-70
2022/11/03 01:43:40;;;;;;;0.60;0.60;;;;;;;17.66;48.21;99759.38;5049814;28;20224;-70
2022/11/03 01:46:14;;;;;;;0.40;0.40;;;;;;;17.71;48.33;99762.56;5049413;28;20196;-70
2022/11/03 01:48:46;;;;;;;0.50;0.50;;;;;;;17.72;48.17;99764.25;5049708;28;20293;-70
2022/11/03 01:51:19;;;;;;;0.53;0.53;;;;;;;17.73;48.51;99763.31;5048919;28;20587;-70
2022/11/03 01:53:48;;;;;;;0.70;0.70;;;;;;;17.72;48.22;99761.66;5050162;28;20215;-70
2022/11/03 01:56:17;;;;;;;0.50;0.50;;;;;;;17.76;48.29;99757.13;5050190;28;20219;-70
2022/11/03 01:58:48;;;;;;;0.60;0.60;;;;;;;17.72;48.05;99748.69;5052326;28;20197;-70
2022/11/03 02:01:15;;;;;;;0.50;0.50;;;;;;;17.78;48.19;99757.88;5054064;28;20331;-70
2022/11/03 02:03:47;;;;;;;0.57;0.57;;;;;;;17.76;48.02;99755.38;5054274;28;20203;-70
2022/11/03 02:06:15;;;;;;;0.70;0.70;;;;;;;17.82;47.95;99752.44;5053524;28;20193;-70
2022/11/03 02:08:48;;;;;;;0.60;0.60;;;;;;;17.87;47.50;99756.56;5054134;28;20196;-70
2022/11/03 02:13:59;;;;;;;0.40;0.40;;;;;;;18.06;47.00;99750.25;5053855;28;20231;-70
2022/11/03 02:16:29;;;;;;;0.60;0.60;;;;;;;18.12;46.46;99751.69;5053368;28;20223;-70
2022/11/03 02:18:57;;;;;;;0.40;0.40;;;;;;;18.18;46.09;99756.53;5053662;28;20196;-70
2022/11/03 02:21:30;;;;;;;0.77;0.77;;;;;;;18.19;46.13;99753.03;5053657;28;20192;-70
2022/11/03 02:24:01;;;;;;;0.50;0.50;;;;;;;18.25;45.89;99752.69;5053601;28;20601;-70
2022/11/03 02:26:30;;;;;;;0.43;0.43;;;;;;;18.31;45.60;99757.53;5053546;28;20708;-71
2022/11/03 02:28:57;;;;;;;0.47;0.47;;;;;;;18.38;45.41;99753.69;5053801;28;20549;-70
2022/11/03 02:31:34;;;;;;;0.57;0.57;;;;;;;18.31;45.64;99749.75;5053034;28;20197;-70
2022/11/03 02:34:08;;;;;;;0.57;0.57;;;;;;;18.42;45.43;99760.34;5052884;28;20197;-70
2022/11/03 02:36:41;;;;;;;0.50;0.50;;;;;;;18.45;45.63;99764.56;5053273;28;20289;-70
2022/11/03 02:39:12;;;;;;;0.80;0.80;;;;;;;18.42;45.78;99762.94;5053692;28;20204;-70
2022/11/03 02:41:43;;;;;;;0.70;0.70;;;;;;;18.43;45.86;99762.03;5050665;28;20223;-69
2022/11/03 02:44:15;;;;;;;0.40;0.40;;;;;;;18.40;45.89;99759.59;5051555;28;20202;-69
2022/11/03 02:46:45;;;;;;;0.60;0.60;;;;;;;18.34;45.92;99747.81;5052659;28;20200;-69
2022/11/03 02:49:12;;;;;;;0.43;0.43;;;;;;;18.38;46.04;99759.69;5052814;28;20256;-69
2022/11/03 02:51:39;;;;;;;0.50;0.50;;;;;;;18.41;45.73;99758.69;5052936;28;20193;-69
2022/11/03 02:54:12;;;;;;;0.50;0.50;;;;;;;18.43;45.99;99761.19;5053336;28;20695;-69
2022/11/03 02:56:47;;;;;;;0.80;0.80;;;;;;;18.43;45.87;99751.66;5052737;28;20216;-70
2022/11/03 02:59:18;;;;;;;0.50;0.50;;;;;;;18.44;46.15;99755.09;5053035;28;20206;-69
2022/11/03 03:01:51;;;;;;;0.60;0.60;;;;;;;18.48;46.03;99760.00;5052170;28;20205;-70
2022/11/03 03:04:22;;;;;;;0.40;0.40;;;;;;;18.47;46.40;99758.34;5052594;28;20254;-69
2022/11/03 03:06:53;;;;;;;0.50;0.50;;;;;;;18.48;46.10;99754.81;5051978;28;20205;-70
2022/11/03 03:09:25;;;;;;;0.50;0.50;;;;;;;18.49;46.60;99761.69;5051888;28;20197;-70
2022/11/03 03:11:56;;;;;;;0.50;0.50;;;;;;;18.50;46.48;99767.75;5052742;28;20204;-70
2022/11/03 03:14:28;;;;;;;0.50;0.50;;;;;;;18.47;46.54;99763.53;5052368;28;20243;-70
2022/11/03 03:17:01;;;;;;;0.60;0.60;;;;;;;18.42;46.35;99765.53;5052146;28;20220;-70
2022/11/03 03:19:37;;;;;;;0.40;0.40;;;;;;;18.47;46.04;99776.53;5052652;28;20581;-70
2022/11/03 03:22:14;;;;;;;0.60;0.60;;;;;;;18.44;46.62;99774.09;5052355;28;20561;-70
2022/11/03 03:24:50;;;;;;;0.50;0.50;;;;;;;18.41;46.93;99784.66;5052672;28;20193;-70
2022/11/03 03:27:21;;;;;;;0.60;0.60;;;;;;;18.40;46.77;99782.13;5052352;28;20594;-70
2022/11/03 03:29:51;;;;;;;0.60;0.60;;;;;;;18.39;46.65;99781.28;5052178;28;20200;-70
2022/11/03 03:32:22;;;;;;;1.53;1.43;;;;;;;18.39;46.56;99778.69;5052179;28;20201;-67
2022/11/03 03:34:51;;;;;;;0.60;0.60;;;;;;;18.39;46.65;99783.88;5052878;28;20204;-66
2022/11/03 03:37:20;;;;;;;0.50;0.50;;;;;;;18.34;46.74;99783.31;5050896;28;20266;-66
2022/11/03 03:39:58;;;;;;;0.80;0.80;;;;;;;18.15;47.51;99751.53;5051735;28;20299;-66
2022/11/03 03:42:29;;;;;;;0.50;0.50;;;;;;;18.29;47.67;99790.50;5050788;28;20201;-66
2022/11/03 03:44:57;;;;;;;0.60;0.60;;;;;;;18.28;48.30;99786.25;5051984;28;20197;-67
2022/11/03 03:47:28;;;;;;;0.53;0.53;;;;;;;18.24;48.75;99790.78;5051860;28;20242;-66
2022/11/03 03:49:56;;;;;;;0.50;0.50;;;;;;;18.25;48.82;99782.09;5052190;28;20250;-66
2022/11/03 03:52:23;;;;;;;0.70;0.70;;;;;;;18.27;48.33;99787.16;5051949;28;20200;-67
2022/11/03 03:54:50;;;;;;;0.60;0.60;;;;;;;18.25;48.10;99789.03;5052466;28;20652;-67
2022/11/03 03:57:20;;;;;;;0.50;0.50;;;;;;;18.24;47.79;99779.56;5049797;28;20728;-67
2022/11/03 03:59:48;;;;;;;0.70;0.70;;;;;;;18.17;47.97;99786.00;5051353;28;20412;-66
2022/11/03 04:02:16;;;;;;;0.53;0.53;;;;;;;18.19;47.55;99789.38;5051701;28;20212;-66
2022/11/03 04:04:42;;;;;;;0.57;0.57;;;;;;;18.17;47.34;99786.00;5051075;28;20197;-66
2022/11/03 04:09:54;;;;;;;0.60;0.60;;;;;;;18.03;47.57;99797.13;5049294;28;20561;-67
2022/11/03 04:23:23;;;;;;;0.40;0.40;;;;;;;17.86;46.92;99796.38;5051646;28;20241;-66
2022/11/03 04:25:53;;;;;;;0.50;0.50;;;;;;;17.81;46.87;99784.50;5051663;28;20711;-66
2022/11/03 04:28:21;;;;;;;0.50;0.50;;;;;;;17.82;46.87;99786.16;5051421;28;20204;-66
2022/11/03 04:30:49;;;;;;;0.50;0.50;;;;;;;17.83;47.05;99789.59;5051696;28;20723;-66
2022/11/03 04:33:18;;;;;;;0.57;0.57;;;;;;;17.83;47.11;99793.00;5051453;28;20205;-66
2022/11/03 04:35:46;;;;;;;0.90;0.90;;;;;;;17.83;46.79;99787.00;5050038;28;20216;-66
2022/11/03 04:38:23;;;;;;;0.50;0.50;;;;;;;17.83;46.94;99793.00;5051255;28;20215;-67
2022/11/03 04:40:52;;;;;;;0.50;0.50;;;;;;;17.87;46.68;99787.69;5050054;28;20235;-68
2022/11/03 04:43:21;;;;;;;0.30;0.30;;;;;;;17.83;46.98;99787.00;5050864;28;20223;-66
2022/11/03 04:45:49;;;;;;;0.50;0.50;;;;;;;17.86;46.61;99786.00;5050998;28;20208;-66
2022/11/03 04:48:21;;;;;;;0.63;0.63;;;;;;;17.84;46.86;99789.50;5051116;28;20258;-67
2022/11/03 04:50:49;;;;;;;0.50;0.50;;;;;;;17.89;46.76;99796.22;5051100;28;20205;-67
2022/11/03 04:53:18;;;;;;;0.50;0.50;;;;;;;17.90;47.06;99788.34;5051047;28;20204;-66
2022/11/03 04:55:47;;;;;;;0.50;0.50;;;;;;;17.91;46.81;99789.16;5050688;28;20310;-67
2022/11/03 04:58:19;;;;;;;0.40;0.40;;;;;;;17.90;46.46;99797.91;5050858;28;20209;-67
2022/11/03 05:00:45;;;;;;;0.50;0.50;;;;;;;17.90;46.51;99801.31;5048084;28;20201;-67
2022/11/03 05:03:18;;;;;;;0.60;0.60;;;;;;;17.92;46.50;99801.22;5048104;28;20212;-67
2022/11/03 05:05:45;;;;;;;0.53;0.53;;;;;;;17.91;46.68;99804.75;5051730;28;20197;-66
2022/11/03 05:08:13;;;;;;;0.50;0.50;;;;;;;17.92;46.77;99802.06;5050748;28;20580;-66
2022/11/03 05:10:39;;;;;;;0.50;0.50;;;;;;;17.96;46.65;99807.94;5049781;28;20201;-67
2022/11/03 05:13:15;;;;;;;0.63;0.63;;;;;;;17.97;46.95;99809.59;5050167;28;20262;-67
2022/11/03 05:15:44;;;;;;;0.67;0.67;;;;;;;17.96;46.46;99815.72;5050963;28;20295;-67
2022/11/03 05:18:18;;;;;;;0.40;0.40;;;;;;;17.83;47.17;99808.56;5049994;28;20275;-67
2022/11/03 05:20:53;;;;;;;0.50;0.50;;;;;;;17.87;47.16;99822.22;5046848;28;20216;-67
2022/11/03 05:23:22;;;;;;;0.43;0.43;;;;;;;17.85;47.23;99821.47;5044218;28;20755;-66
2022/11/03 05:25:53;;;;;;;0.50;0.50;;;;;;;17.78;47.71;99820.97;5042022;28;20204;-66
2022/11/03 05:28:26;;;;;;;0.80;0.80;;;;;;;17.75;47.59;99825.47;5048536;28;20212;-66
2022/11/03 05:30:53;;;;;;;0.50;0.50;;;;;;;17.64;47.89;99818.25;5047585;28;20258;-66
2022/11/03 05:33:28;;;;;;;0.53;0.53;;;;;;;17.60;48.49;99827.13;5046538;28;20211;-66
2022/11/03 05:35:58;;;;;;;0.33;0.33;;;;;;;17.54;48.30;99811.84;5048257;28;20600;-67
2022/11/03 05:38:29;;;;;;;0.97;0.67;;;;;;;17.66;48.63;99831.97;5048438;28;20683;-66
2022/11/03 05:40:55;;;;;;;0.53;0.53;;;;;;;17.69;47.97;99836.16;5049954;28;20661;-66
2022/11/03 05:43:23;;;;;;;0.53;0.53;;;;;;;17.73;48.19;99853.25;5049076;28;20204;-67
2022/11/03 05:45:51;;;;;;;1.27;1.27;;;;;;;17.78;48.51;99852.06;5049105;28;20203;-66
2022/11/03 05:48:26;;;;;;;0.60;0.60;;;;;;;17.79;48.64;99855.53;5049559;28;20208;-67
2022/11/03 05:50:58;;;;;;;0.50;0.50;;;;;;;17.83;48.29;99859.63;5047039;28;20665;-66
2022/11/03 05:53:29;;;;;;;0.43;0.43;;;;;;;17.86;48.11;99861.22;5049681;28;20228;-67
2022/11/03 05:55:59;;;;;;;0.50;0.50;;;;;;;17.91;48.55;99867.00;5049691;28;20192;-66
2022/11/03 05:58:29;;;;;;;0.70;0.70;;;;;;;17.95;48.56;99874.53;5049518;28;20299;-67
2022/11/03 06:00:57;;;;;;;0.50;0.50;;;;;;;18.01;48.34;99878.56;5049657;28;20692;-66
2022/11/03 06:03:27;;;;;;;0.50;0.50;;;;;;;18.06;48.29;99876.56;5049590;28;20201;-67
2022/11/03 06:05:57;;;;;;;0.50;0.50;;;;;;;18.10;48.56;99883.25;5047638;28;20201;-67
2022/11/03 06:08:26;;;;;;;0.50;0.50;;;;;;;18.15;48.13;99884.72;5048813;28;20197;-66
2022/11/03 06:10:54;;;;;;;0.60;0.60;;;;;;;18.21;47.67;99894.75;5048592;28;20205;-67
2022/11/03 06:13:26;;;;;;;0.50;0.50;;;;;;;18.24;47.91;99901.53;5049332;28;20201;-67
2022/11/03 06:15:59;;;;;;;0.60;0.60;;;;;;;18.29;47.86;99904.72;5049158;28;21154;-67
2022/11/03 06:18:30;;;;;;;0.50;0.50;;;;;;;18.35;47.96;99914.78;5049251;28;20663;-67
2022/11/03 06:21:06;;;;;;;0.40;0.40;;;;;;;18.34;47.87;99910.50;5044812;28;20244;-67
2022/11/03 06:23:35;;;;;;;0.83;0.83;;;;;;;18.40;48.34;99912.78;5044642;28;20193;-67
2022/11/03 06:26:03;;;;;;;0.77;0.77;;;;;;;18.45;47.98;99921.13;5048202;28;20201;-67
2022/11/03 06:28:33;;;;;;;0.63;0.63;;;;;;;18.47;47.88;99910.69;5048031;28;20751;-67
2022/11/03 06:31:00;;;;;;;0.57;0.57;;;;;;;18.51;48.07;99914.81;5049170;28;20193;-67
2022/11/03 06:33:29;;;;;;;0.70;0.70;;;;;;;18.56;47.89;99912.81;5047711;28;20205;-66
2022/11/03 06:36:01;;;;;;;1.27;1.27;;;;;;;18.59;47.74;99923.03;5048777;28;20815;-66
2022/11/03 06:38:31;;;;;;;1.10;1.10;;;;;;;18.59;47.76;99923.88;5047338;28;20205;-67
2022/11/03 06:40:59;;;;;;;0.50;0.50;;;;;;;18.67;48.39;99923.47;5047812;28;20254;-66
2022/11/03 06:43:31;;;;;;;0.40;0.40;;;;;;;18.76;48.19;99923.78;5048669;28;20585;-67
2022/11/03 06:46:01;;;;;;;0.50;0.50;;;;;;;18.79;47.62;99923.63;5050407;28;20208;-67
2022/11/03 06:48:29;;;;;;;0.80;0.80;;;;;;;18.82;47.92;99931.25;5052476;28;20197;-66
2022/11/03 06:50:58;;;;;;;0.60;0.60;;;;;;;18.90;48.10;99927.38;5052456;28;20212;-66
2022/11/03 06:53:31;;;;;;;0.50;0.50;;;;;;;18.97;48.43;99934.72;5050545;28;20240;-68
2022/11/03 06:55:59;;;;;;;0.60;0.60;;;;;;;18.98;49.13;99931.22;5051280;28;20212;-67
2022/11/03 06:58:30;;;;;;;0.60;0.60;;;;;;;19.10;48.47;99945.28;5048909;28;20210;-65
2022/11/03 07:00:59;;;;;;;0.67;0.67;;;;;;;19.19;48.56;99942.97;5050917;28;20207;-67
2022/11/03 07:03:30;;;;;;;0.40;0.40;;;;;;;19.29;48.70;99944.13;5051876;28;20228;-66
2022/11/03 07:05:58;;;;;;;0.50;0.50;;;;;;;19.33;48.85;99952.59;5050986;28;20228;-66
2022/11/03 07:08:30;;;;;;;0.40;0.40;;;;;;;19.35;48.97;99951.59;5051925;28;20251;-66
2022/11/03 07:11:01;;;;;;;0.50;0.50;;;;;;;19.33;49.63;99944.81;5052219;28;20200;-66
2022/11/03 07:13:31;;;;;;;0.40;0.40;;;;;;;19.39;49.87;99952.25;5051384;28;20284;-65
2022/11/03 07:15:58;;;;;;;0.40;0.40;;;;;;;19.46;49.66;99953.63;5051539;28;20721;-65
2022/11/03 07:18:29;;;;;;;0.50;0.50;;;;;;;19.53;49.83;99951.50;5051012;28;20212;-66
2022/11/03 07:20:57;;;;;;;0.60;0.60;;;;;;;19.61;49.28;99959.72;5051445;28;20216;-65
2022/11/03 07:23:26;;;;;;;0.50;0.50;;;;;;;19.68;49.45;99956.63;5050711;28;20661;-66
2022/11/03 07:25:58;;;;;;;0.50;0.50;;;;;;;19.77;49.74;99963.09;5052437;28;20206;-65
2022/11/03 07:28:29;;;;;;;0.43;0.43;;;;;;;19.85;50.04;99956.50;5050224;28;20201;-65
2022/11/03 07:30:58;;;;;;;0.40;0.40;;;;;;;20.01;49.58;99966.81;5050608;28;20561;-65
2022/11/03 07:33:27;;;;;;;0.50;0.50;;;;;;;20.07;49.83;99953.44;5050489;28;20226;-64
2022/11/03 07:35:56;;;;;;;0.53;0.53;;;;;;;20.30;49.26;99959.88;5052834;28;20209;-64
2022/11/03 07:38:26;;;;;;;0.70;0.70;;;;;;;20.37;48.76;99943.78;5050656;28;20235;-64
2022/11/03 07:40:57;;;;;;;0.60;0.60;;;;;;;20.53;47.81;99954.09;5050400;28;20199;-64
2022/11/03 07:43:30;;;;;;;0.60;0.60;;;;;;;20.64;48.23;99954.28;5052108;28;20627;-64
2022/11/03 07:45:59;;;;;;;2.17;0.60;;;;;;;20.82;47.13;99963.53;5050914;28;20203;-64
2022/11/03 07:48:28;;;;;;;0.50;0.50;;;;;;;20.85;47.48;99952.91;5051040;28;20232;-65
2022/11/03 07:50:57;;;;;;;0.30;0.30;;;;;;;21.03;47.42;99952.69;5049485;28;20207;-65
2022/11/03 07:53:35;;;;;;;0.50;0.50;;;;;;;21.16;46.63;99954.44;5047688;28;20210;-64
2022/11/03 07:56:15;;;;;;;0.60;0.60;;;;;;;21.33;46.34;99955.91;5049607;28;20251;-64
2022/11/03 07:58:42;;;;;;;0.40;0.40;;;;;;;21.38;45.96;99948.66;5049060;28;20219;-64
2022/11/03 08:01:24;;;;;;;0.40;0.40;;;;;;;21.48;45.19;99949.72;5049954;28;20216;-65
2022/11/03 08:03:52;;;;;;;0.50;0.50;;;;;;;21.64;45.01;99952.13;5048078;28;20239;-64
2022/11/03 08:06:19;;;;;;;0.40;0.40;;;;;;;21.76;43.87;99957.38;5048202;28;20596;-65
2022/11/03 08:08:46;;;;;;;0.40;0.40;;;;;;;21.76;42.08;99965.19;5047745;28;20216;-66
2022/11/03 08:11:14;;;;;;;0.50;0.50;;;;;;;21.70;41.54;99959.56;5047357;28;20664;-68
2022/11/03 08:13:41;;;;;;;0.30;0.30;;;;;;;21.59;41.40;99967.25;5046340;28;20265;-67
2022/11/03 08:16:08;;;;;;;0.50;0.50;;;;;;;21.61;41.26;99957.56;5046545;28;20628;-66
2022/11/03 08:18:35;;;;;;;0.50;0.50;;;;;;;21.75;41.65;99962.69;5047566;28;20876;-66
2022/11/03 08:21:02;;;;;;;0.57;0.57;;;;;;;21.77;41.42;99956.44;5042807;28;20212;-65
2022/11/03 08:23:29;;;;;;;0.43;0.43;;;;;;;21.71;41.33;99959.44;5048543;28;20687;-66
2022/11/03 08:25:56;;;;;;;0.40;0.40;;;;;;;21.76;41.24;99961.75;5048848;28;20215;-65
2022/11/03 08:28:24;;;;;;;0.50;0.50;;;;;;;21.78;41.08;99957.25;5045684;28;20679;-65
2022/11/03 08:30:51;;;;;;;0.47;0.47;;;;;;;21.68;41.67;99954.41;5049580;28;20207;-65
2022/11/03 08:33:19;;;;;;;0.67;0.67;;;;;;;21.58;41.93;99953.41;5050039;28;20214;-66
2022/11/03 08:35:45;;;;;;;1.07;1.07;;;;;;;21.54;42.13;99964.97;5049855;28;20565;-66
2022/11/03 08:38:12;;;;;;;0.60;0.60;;;;;;;21.50;42.00;99958.28;5049807;28;20216;-65
2022/11/03 08:40:39;;;;;;;0.57;0.57;;;;;;;21.42;41.77;99955.34;5047274;28;20246;-66
2022/11/03 08:43:06;;;;;;;0.60;0.60;;;;;;;21.46;42.28;99962.00;5047264;28;20207;-67
2022/11/03 08:45:34;;;;;;;0.40;0.40;;;;;;;21.46;41.48;99956.78;5041689;28;20208;-66
2022/11/03 08:48:00;;;;;;;0.63;0.63;;;;;;;21.58;42.37;99963.81;5046482;28;20197;-65
2022/11/03 08:50:27;;;;;;;0.50;0.50;;;;;;;21.79;41.98;99953.72;5045100;28;20273;-65
2022/11/03 08:52:54;;;;;;;0.40;0.40;;;;;;;21.89;41.30;99958.25;5046488;28;20201;-65
2022/11/03 08:55:21;;;;;;;1.33;1.07;;;;;;;21.94;40.71;99948.31;5044292;28;20596;-64
2022/11/03 08:57:48;;;;;;;0.67;0.67;;;;;;;22.09;41.42;99959.50;5044092;28;20239;-65
2022/11/03 09:00:16;;;;;;;0.63;0.63;;;;;;;22.10;40.78;99962.94;5045791;28;20209;-67
2022/11/03 09:02:45;;;;;;;0.60;0.60;;;;;;;22.01;41.00;99959.19;5044974;28;20204;-66
2022/11/03 09:05:13;;;;;;;0.43;0.43;;;;;;;21.98;40.56;99955.00;5045420;28;20209;-66
2022/11/03 09:07:40;;;;;;;0.53;0.53;;;;;;;22.11;40.93;99959.38;5045033;28;20270;-65
2022/11/03 09:10:10;;;;;;;0.43;0.43;;;;;;;22.19;40.67;99957.09;5043712;28;20192;-65
2022/11/03 09:12:37;;;;;;;0.40;0.40;;;;;;;22.23;40.02;99958.56;5045613;28;20196;-66
2022/11/03 09:15:04;;;;;;;0.37;0.37;;;;;;;22.41;39.97;99952.88;5045608;28;20256;-66
2022/11/03 09:17:31;;;;;;;0.40;0.40;;;;;;;22.35;40.15;99942.03;5044405;28;20229;-66
2022/11/03 09:19:59;;;;;;;0.60;0.60;;;;;;;22.58;41.06;99954.31;5046170;28;20204;-65
2022/11/03 09:22:26;;;;;;;0.40;0.40;;;;;;;22.73;39.78;99948.03;5045543;28;20209;-65
2022/11/03 09:24:53;;;;;;;0.30;0.30;;;;;;;22.56;38.73;99908.31;5045098;28;20204;-65
2022/11/03 09:27:20;;;;;;;0.43;0.43;;;;;;;22.74;39.08;99933.19;5043065;28;20209;-66
2022/11/03 09:29:47;;;;;;;0.40;0.40;;;;;;;22.83;39.93;99938.56;5044572;28;20751;-65
2022/11/03 09:32:14;;;;;;;0.40;0.40;;;;;;;22.97;39.56;99935.78;5045133;28;20691;-65
2022/11/03 09:34:40;;;;;;;0.70;0.70;;;;;;;23.07;38.90;99937.75;5044658;28;20222;-66
2022/11/03 09:37:09;;;;;;;0.33;0.33;;;;;;;23.15;39.21;99932.78;5047215;28;20225;-65
2022/11/03 09:39:36;;;;;;;0.50;0.50;;;;;;;23.22;38.94;99934.00;5043585;28;20205;-67
2022/11/03 09:42:03;;;;;;;1.03;1.03;;;;;;;23.15;38.39;99928.38;5045798;28;20216;-65
2022/11/03 09:44:33;;;;;;;0.40;0.40;;;;;;;23.23;38.20;99930.44;5042687;28;20254;-67
2022/11/03 09:47:00;;;;;;;0.50;0.50;;;;;;;23.19;38.56;99929.84;5048066;28;20628;-66
2022/11/03 09:49:28;;;;;;;0.60;0.60;;;;;;;23.20;38.47;99917.59;5050610;28;20211;-66
2022/11/03 09:51:56;;;;;;;0.40;0.40;;;;;;;23.37;38.35;99922.38;5051307;28;20278;-66
2022/11/03 09:54:25;;;;;;;0.50;0.50;;;;;;;23.56;37.75;99921.88;5045474;28;20209;-66
2022/11/03 09:56:52;;;;;;;1.80;0.53;;;;;;;23.55;37.49;99915.81;5044016;28;20278;-68
2022/11/03 09:59:21;;;;;;;1.27;1.27;;;;;;;23.55;37.67;99910.59;5047353;28;20278;-66
2022/11/03 10:01:52;;;;;;;0.43;0.43;;;;;;;23.55;37.21;99904.53;5047606;28;20207;-67
2022/11/03 10:04:22;;;;;;;0.70;0.70;;;;;;;23.50;37.46;99904.84;5045628;28;20295;-67
2022/11/03 10:06:49;;;;;;;0.30;0.30;;;;;;;23.47;37.69;99894.63;5044866;28;20204;-66
2022/11/03 10:09:19;;;;;;;0.47;0.47;;;;;;;23.53;38.31;99900.22;5047185;28;20200;-66
2022/11/03 10:11:47;;;;;;;0.37;0.37;;;;;;;23.50;38.07;99887.38;5048361;28;20204;-68
2022/11/03 10:14:17;;;;;;;0.70;0.70;;;;;;;23.55;38.82;99889.66;5047654;28;20220;-67
2022/11/03 10:16:51;;;;;;;0.77;0.77;;;;;;;23.56;38.19;99895.69;5045893;28;20196;-68
2022/11/03 10:19:18;;;;;;;0.40;0.40;;;;;;;23.63;38.56;99882.03;5048814;28;20204;-68
2022/11/03 10:21:45;;;;;;;0.40;0.40;;;;;;;23.52;38.70;99882.03;5052424;28;20215;-68
2022/11/03 10:24:12;;;;;;;0.40;0.40;;;;;;;23.51;38.68;99877.75;5051361;28;20204;-67
2022/11/03 10:26:48;;;;;;;0.30;0.30;;;;;;;23.43;38.75;99869.63;5050133;28;20212;-67
2022/11/03 10:29:22;;;;;;;0.37;0.37;;;;;;;23.49;38.69;99869.16;5048026;28;20673;-68
2022/11/03 10:31:52;;;;;;;0.50;0.50;;;;;;;23.43;38.76;99864.38;5051215;28;20208;-66
2022/11/03 10:34:27;;;;;;;0.50;0.50;;;;;;;23.49;38.92;99869.16;5050313;28;20620;-67
2022/11/03 10:37:16;;;;;;;1.47;1.47;;;;;;;23.45;38.98;99862.50;5049243;28;20679;-67
2022/11/03 10:39:43;;;;;;;0.40;0.40;;;;;;;23.42;39.35;99858.34;5053400;28;20629;-70
2022/11/03 10:42:19;;;;;;;0.40;0.40;;;;;;;23.27;39.68;99859.44;5053004;28;20209;-66
2022/11/03 10:44:46;;;;;;;0.82;0.82;;;;;;;23.33;39.59;99848.53;5044434;28;20822;-67
2022/11/03 10:47:24;;;;;;;0.70;0.70;;;;;;;23.26;39.61;99836.03;5053260;28;20573;-66
2022/11/03 10:49:51;;;;;;;0.40;0.40;;;;;;;23.41;39.49;99850.59;5050668;28;20204;-66
2022/11/03 10:52:21;;;;;;;0.90;0.90;;;;;;;23.49;39.85;99848.22;5052296;28;20696;-66
2022/11/03 10:54:49;;;;;;;0.63;0.63;;;;;;;23.48;39.77;99849.19;5049516;28;20251;-67
2022/11/03 10:57:18;;;;;;;0.33;0.33;;;;;;;23.47;39.59;99845.72;5051716;28;20208;-66
2022/11/03 10:59:47;;;;;;;0.40;0.40;;;;;;;23.48;39.86;99841.34;5048980;28;20227;-67
2022/11/03 11:02:18;;;;;;;0.30;0.30;;;;;;;23.55;39.94;99832.06;5044754;28;20711;-67
2022/11/03 11:04:47;;;;;;;0.60;0.60;;;;;;;23.62;39.64;99833.25;5048751;28;20204;-67
2022/11/03 11:07:25;;;;;;;1.20;1.10;;;;;;;23.59;40.12;99823.00;5050805;28;20213;-66
2022/11/03 11:09:53;;;;;;;0.40;0.40;;;;;;;23.70;39.02;99815.19;5050728;28;20203;-67
2022/11/03 11:12:23;;;;;;;0.97;0.53;;;;;;;23.36;39.33;99779.44;5047311;28;20205;-68
2022/11/03 11:14:55;;;;;;;0.37;0.37;;;;;;;23.58;39.62;99807.44;5047690;28;20255;-67
2022/11/03 11:17:43;;;;;;;0.50;0.50;;;;;;;23.63;38.95;99806.13;5049085;28;20292;-67
2022/11/03 11:20:31;;;;;;;0.40;0.40;;;;;;;23.61;39.33;99804.59;5047243;28;20233;-66
2022/11/03 11:23:28;;;;;;;0.30;0.30;;;;;;;23.67;39.09;99794.47;5045984;28;20209;-66
2022/11/03 11:26:14;;;;;;;0.40;0.40;;;;;;;23.81;39.13;99802.06;5039401;28;20212;-68
2022/11/03 11:28:45;;;;;;;0.40;0.40;;;;;;;23.67;39.43;99789.25;5052124;28;20287;-68
2022/11/03 11:31:29;;;;;;;0.53;0.53;;;;;;;23.66;39.29;99781.50;5050617;28;20683;-68
2022/11/03 11:34:33;;;;;;;0.40;0.40;;;;;;;23.62;39.34;99780.88;5053046;28;20204;-67
2022/11/03 11:37:35;;;;;;;0.50;0.50;;;;;;;23.72;39.13;99779.22;5049825;28;20204;-69
2022/11/03 11:40:09;;;;;;;0.50;0.50;;;;;;;23.73;38.86;99778.28;5049137;28;20223;-69
2022/11/03 11:43:14;;;;;;;1.00;1.00;;;;;;;23.65;38.52;99766.75;5051015;28;20439;-67
2022/11/03 11:46:38;;;;;;;0.30;0.30;;;;;;;23.73;38.71;99767.81;5049890;28;20200;-67
2022/11/03 11:49:19;;;;;;;0.50;0.50;;;;;;;23.74;38.75;99772.09;5051487;28;20196;-67
2022/11/03 11:51:46;;;;;;;1.03;1.03;;;;;;;23.77;38.71;99768.41;5050762;28;20211;-71
2022/11/03 11:54:17;;;;;;;0.40;0.40;;;;;;;23.74;38.56;99766.88;5050792;28;20661;-73
2022/11/03 11:56:46;;;;;;;0.50;0.50;;;;;;;23.71;38.81;99764.50;5050655;28;20200;-69
2022/11/03 11:59:19;;;;;;;0.50;0.50;;;;;;;23.66;39.44;99756.16;5050347;28;20239;-69
2022/11/03 12:01:51;;;;;;;0.43;0.43;;;;;;;23.61;39.39;99753.06;5050389;28;20291;-67
2022/11/03 12:04:22;;;;;;;0.30;0.30;;;;;;;23.64;39.36;99747.59;5052142;28;20728;-72
2022/11/03 12:06:49;;;;;;;0.40;0.40;;;;;;;23.68;39.28;99749.03;5052790;28;20211;-73
2022/11/03 12:09:18;;;;;;;0.40;0.40;;;;;;;23.70;38.70;99741.88;5047202;28;20201;-67
2022/11/03 12:11:46;;;;;;;0.40;0.40;;;;;;;23.75;39.28;99739.72;5044831;28;20201;-67